Time;durP1;ratioP1;P1;durP2;ratioP2;P2;SDS_P1;SDS_P2;PMS_P1;PMS_P2;Temp;Humidity;BMP_temperature;BMP_pressure;BME280_temperature;BME280_humidity;BME280_pressure;Samples;Min_cycle;Max_cycle;Signal;HPM_P1;HPM_P2
2022/08/20 00:00:52;;;;;;;22.40;15.50;;;24.60;99.90;;;;;;5013077;28;20037;-46
2022/08/20 00:03:30;;;;;;;23.63;14.18;;;24.50;99.90;;;;;;5043792;28;20037;-46
2022/08/20 00:06:04;;;;;;;22.08;15.23;;;24.50;99.90;;;;;;5038170;28;20128;-46
2022/08/20 00:08:30;;;;;;;24.05;13.60;;;24.60;99.90;;;;;;5043452;28;20121;-48
2022/08/20 00:10:57;;;;;;;23.42;16.23;;;24.70;99.90;;;;;;5045141;28;20128;-48
2022/08/20 00:13:28;;;;;;;24.38;14.15;;;24.60;99.90;;;;;;5041641;28;20082;-46
2022/08/20 00:15:54;;;;;;;19.35;12.07;;;24.60;99.90;;;;;;5041419;28;20538;-46
2022/08/20 00:18:21;;;;;;;20.23;13.73;;;24.60;99.90;;;;;;5041808;28;20033;-47
2022/08/20 00:20:51;;;;;;;18.90;13.23;;;24.60;99.90;;;;;;5040434;28;20103;-46
2022/08/20 00:23:17;;;;;;;15.93;11.27;;;24.60;99.90;;;;;;5035356;28;20510;-47
2022/08/20 00:25:44;;;;;;;18.88;12.13;;;24.70;99.90;;;;;;5043402;28;20358;-48
2022/08/20 00:28:11;;;;;;;20.65;12.30;;;24.60;99.90;;;;;;5040052;28;20041;-47
2022/08/20 00:30:38;;;;;;;21.90;11.38;;;24.60;99.90;;;;;;5039469;28;20480;-47
2022/08/20 00:33:10;;;;;;;25.15;12.30;;;24.60;99.90;;;;;;5051434;28;20029;-47
2022/08/20 00:35:39;;;;;;;17.88;12.70;;;24.60;99.90;;;;;;5044293;28;20485;-48
2022/08/20 00:38:05;;;;;;;22.85;13.15;;;24.60;99.90;;;;;;5047346;28;20109;-47
2022/08/20 00:40:37;;;;;;;24.67;13.13;;;24.50;99.90;;;;;;5045126;28;20392;-47
2022/08/20 00:43:06;;;;;;;25.58;13.23;;;24.40;99.90;;;;;;5051581;28;20033;-47
2022/08/20 00:45:34;;;;;;;18.67;12.27;;;24.40;99.90;;;;;;5063916;28;20546;-47
2022/08/20 00:48:00;;;;;;;20.17;12.00;;;24.40;99.90;;;;;;5047238;28;20018;-46
2022/08/20 00:50:29;;;;;;;15.23;9.30;;;;;;;;;;5058966;28;20131;-47
2022/08/20 00:52:54;;;;;;;15.57;9.35;;;24.40;99.90;;;;;;5046665;28;20043;-47
2022/08/20 00:55:23;;;;;;;19.30;9.77;;;24.50;99.90;;;;;;5056755;28;20041;-47
2022/08/20 00:57:53;;;;;;;20.80;12.45;;;;;;;;;;5044794;28;20041;-45
2022/08/20 01:00:39;;;;;;;24.38;12.70;;;;;;;;;;5042657;28;20120;-47
2022/08/20 01:03:08;;;;;;;23.45;12.82;;;24.10;99.90;;;;;;5042431;28;20026;-48
2022/08/20 01:05:35;;;;;;;17.00;11.43;;;23.90;99.90;;;;;;5041077;28;20099;-48
2022/08/20 01:08:02;;;;;;;19.27;12.63;;;23.70;99.90;;;;;;5047075;28;20025;-45
2022/08/20 01:10:33;;;;;;;18.63;9.93;;;23.70;99.90;;;;;;5048601;28;20484;-48
2022/08/20 01:13:02;;;;;;;18.05;12.35;;;23.90;99.90;;;;;;5044364;28;20030;-46
2022/08/20 01:15:30;;;;;;;18.23;12.43;;;23.80;99.90;;;;;;5044984;28;20029;-47
2022/08/20 01:18:00;;;;;;;18.73;12.25;;;23.70;99.90;;;;;;5047245;28;20037;-46
2022/08/20 01:20:56;;;;;;;23.13;13.57;;;;;;;;;;5047497;28;20102;-45
2022/08/20 01:23:51;;;;;;;25.27;13.98;;;23.50;99.90;;;;;;5012894;28;20425;-46
2022/08/20 01:26:21;;;;;;;22.55;12.80;;;;;;;;;;5012240;28;20559;-46
2022/08/20 01:29:07;;;;;;;25.20;13.43;;;;;;;;;;5012182;28;20805;-46
2022/08/20 01:31:35;;;;;;;18.58;12.65;;;;;;;;;;5010650;28;20141;-47
2022/08/20 01:34:02;;;;;;;22.25;13.90;;;;;;;;;;5012343;28;20045;-46
2022/08/20 01:36:36;;;;;;;29.55;14.82;;;22.90;99.90;;;;;;5012966;28;20069;-45
2022/08/20 01:39:04;;;;;;;19.75;13.43;;;;;;;;;;5012327;28;20022;-46
2022/08/20 01:41:35;;;;;;;18.58;13.00;;;;;;;;;;4995466;28;20117;-48
2022/08/20 01:44:02;;;;;;;26.35;12.90;;;23.10;99.90;;;;;;5011989;28;20034;-47
2022/08/20 01:46:33;;;;;;;25.30;12.70;;;23.10;99.90;;;;;;4979877;28;20037;-47
2022/08/20 01:49:09;;;;;;;24.88;12.27;;;23.20;99.90;;;;;;5012224;28;20026;-46
2022/08/20 01:51:35;;;;;;;20.70;9.80;;;23.20;99.90;;;;;;5011265;28;20034;-46
2022/08/20 01:54:01;;;;;;;21.90;12.77;;;23.20;99.90;;;;;;5012027;28;20049;-46
2022/08/20 01:56:30;;;;;;;25.52;11.32;;;23.10;99.90;;;;;;5011728;28;20040;-45
2022/08/20 01:58:58;;;;;;;18.08;10.02;;;23.10;99.90;;;;;;5018618;28;20044;-47
2022/08/20 02:01:29;;;;;;;16.45;11.23;;;23.00;99.90;;;;;;5044004;28;20026;-47
2022/08/20 02:03:55;;;;;;;29.17;12.85;;;23.00;99.90;;;;;;5041842;28;20032;-47
2022/08/20 02:06:24;;;;;;;23.08;11.65;;;22.90;99.90;;;;;;5055649;28;20040;-47
2022/08/20 02:08:53;;;;;;;18.83;10.05;;;22.70;99.90;;;;;;5042959;28;20384;-44
2022/08/20 02:11:20;;;;;;;26.13;11.90;;;22.70;99.90;;;;;;5037838;28;20656;-46
2022/08/20 02:13:51;;;;;;;18.83;9.88;;;22.70;99.90;;;;;;5043449;28;20381;-46
2022/08/20 02:16:30;;;;;;;23.63;10.57;;;22.70;99.90;;;;;;5046337;28;20037;-46
2022/08/20 02:19:05;;;;;;;21.48;10.65;;;22.70;99.90;;;;;;5042805;28;20110;-44
2022/08/20 02:21:32;;;;;;;19.10;10.15;;;22.80;99.90;;;;;;5046003;28;20115;-46
2022/08/20 02:23:59;;;;;;;23.02;9.23;;;;;;;;;;5041705;28;20465;-44
2022/08/20 02:26:25;;;;;;;19.77;9.27;;;22.80;99.90;;;;;;5047436;28;20051;-44
2022/08/20 02:28:54;;;;;;;19.42;9.77;;;22.80;99.90;;;;;;5039787;28;20025;-44
2022/08/20 02:31:21;;;;;;;18.55;8.90;;;23.00;99.90;;;;;;5042239;28;20041;-46
2022/08/20 03:44:52;;;;;;;22.42;11.77;;;21.70;99.90;;;;;;5102514;27;20737;-44
2022/08/20 04:17:40;;;;;;;18.05;9.07;;;22.00;99.90;;;;;;5088991;28;20087;-44
2022/08/20 04:20:08;;;;;;;20.52;10.15;;;22.10;99.90;;;;;;5052927;28;20041;-45
2022/08/20 04:22:35;;;;;;;20.65;11.48;;;22.20;99.90;;;;;;5061507;28;20028;-46
2022/08/20 04:25:07;;;;;;;24.27;10.90;;;22.30;99.90;;;;;;5054417;28;20048;-44
2022/08/20 04:27:36;;;;;;;19.38;11.40;;;22.40;99.90;;;;;;5061343;28;20096;-44
2022/08/20 04:30:04;;;;;;;24.67;11.57;;;22.40;99.90;;;;;;5052166;28;20185;-44
2022/08/20 04:32:30;;;;;;;14.27;8.32;;;22.40;99.90;;;;;;5061639;28;20110;-43
2022/08/20 04:34:56;;;;;;;20.42;10.45;;;22.30;99.90;;;;;;5022449;28;20512;-43
2022/08/20 04:37:22;;;;;;;22.40;11.93;;;22.20;99.90;;;;;;5050914;28;20488;-45
2022/08/20 04:40:52;;;;;;;19.83;9.88;;;22.30;99.90;;;;;;5052824;28;20055;-44
2022/08/20 04:42:36;;;;;;;17.60;10.90;;;22.20;99.90;;;;;;5020274;28;20045;-44
2022/08/20 04:45:05;;;;;;;18.88;10.63;;;22.20;99.90;;;;;;5007000;28;20054;-45
2022/08/20 04:47:32;;;;;;;22.90;13.13;;;22.20;99.90;;;;;;5004699;28;20563;-45
2022/08/20 04:50:00;;;;;;;16.25;10.63;;;22.30;99.90;;;;;;5002659;28;20084;-45
2022/08/20 04:52:31;;;;;;;19.17;10.80;;;22.30;99.90;;;;;;5042307;28;20504;-45
2022/08/20 04:54:57;;;;;;;24.55;10.85;;;22.30;99.90;;;;;;5045680;28;20176;-42
2022/08/20 04:57:24;;;;;;;22.15;10.13;;;22.40;99.90;;;;;;5043325;28;20436;-44
2022/08/20 04:59:51;;;;;;;17.20;9.50;;;22.30;99.90;;;;;;5043896;28;20408;-43
2022/08/20 05:02:18;;;;;;;21.50;11.13;;;22.20;99.90;;;;;;5039212;28;20136;-45
2022/08/20 05:04:46;;;;;;;17.92;9.98;;;22.30;99.90;;;;;;5026319;28;20029;-43
2022/08/20 05:07:13;;;;;;;18.48;10.70;;;22.30;99.90;;;;;;5045370;28;20446;-43
2022/08/20 05:09:40;;;;;;;18.67;10.32;;;22.40;99.90;;;;;;5040085;28;20033;-45
2022/08/20 05:12:06;;;;;;;16.35;10.20;;;22.60;99.90;;;;;;5045295;28;20107;-45
2022/08/20 05:14:32;;;;;;;25.65;11.32;;;22.60;99.90;;;;;;5014199;28;20510;-44
2022/08/20 05:17:03;;;;;;;20.80;10.40;;;22.60;99.90;;;;;;5071143;28;20055;-45
2022/08/20 05:19:30;;;;;;;20.10;11.65;;;22.60;99.90;;;;;;5079149;28;20024;-45
2022/08/20 05:21:56;;;;;;;19.70;10.05;;;22.70;99.90;;;;;;5077704;28;20426;-45
2022/08/20 05:24:23;;;;;;;19.45;11.05;;;22.60;99.90;;;;;;5071212;28;20107;-44
2022/08/20 05:26:49;;;;;;;22.08;10.70;;;22.40;99.90;;;;;;5074521;28;20118;-44
2022/08/20 05:29:16;;;;;;;15.63;9.15;;;22.40;99.90;;;;;;5055209;28;20462;-44
2022/08/20 05:31:42;;;;;;;21.73;10.90;;;22.40;99.90;;;;;;5074900;28;20028;-43
2022/08/20 05:34:11;;;;;;;21.42;10.90;;;22.50;99.90;;;;;;5071050;28;20098;-44
2022/08/20 05:36:38;;;;;;;22.20;9.15;;;22.40;99.90;;;;;;5071482;28;20482;-45
2022/08/20 05:39:04;;;;;;;16.98;8.65;;;22.20;99.90;;;;;;5072581;28;20028;-45
2022/08/20 05:41:30;;;;;;;24.40;10.75;;;22.20;99.90;;;;;;5072740;28;20468;-45
2022/08/20 05:44:02;;;;;;;20.77;10.02;;;22.20;99.90;;;;;;5074401;28;20051;-42
2022/08/20 05:46:29;;;;;;;;;;;22.20;99.90;;;;;;5056677;28;20438;-44
2022/08/20 05:48:55;;;;;;;22.23;10.45;;;22.30;99.90;;;;;;5072132;28;19908;-45
2022/08/20 05:51:21;;;;;;;18.85;10.82;;;22.40;99.90;;;;;;5076614;28;20119;-44
2022/08/20 05:53:47;;;;;;;16.50;9.75;;;22.40;99.90;;;;;;5070427;28;20123;-44
2022/08/20 05:56:13;;;;;;;18.83;10.27;;;22.50;99.90;;;;;;5068940;28;20090;-46
2022/08/20 05:58:39;;;;;;;25.13;10.27;;;22.60;99.90;;;;;;5069971;28;20048;-43
2022/08/20 06:01:05;;;;;;;17.13;9.13;;;22.60;99.90;;;;;;5071413;28;20544;-45
2022/08/20 06:06:15;;;;;;;27.55;10.73;;;22.40;99.90;;;;;;5067144;28;20086;-46
2022/08/20 06:08:41;;;;;;;22.17;11.93;;;22.60;99.90;;;;;;5045461;28;20037;-43
2022/08/20 06:11:07;;;;;;;19.77;10.50;;;22.50;99.90;;;;;;5050903;28;20412;-44
2022/08/20 06:13:33;;;;;;;18.88;10.70;;;22.60;99.90;;;;;;5069902;28;20044;-44
2022/08/20 06:15:59;;;;;;;20.05;10.38;;;22.70;99.90;;;;;;5037951;28;20024;-45
2022/08/20 06:18:25;;;;;;;20.83;9.98;;;22.70;99.90;;;;;;5085215;28;20059;-45
2022/08/20 06:20:51;;;;;;;18.85;10.10;;;22.50;99.90;;;;;;5071279;28;20468;-42
2022/08/20 06:23:18;;;;;;;20.45;10.48;;;22.40;99.90;;;;;;5072171;28;20028;-43
2022/08/20 06:25:48;;;;;;;22.50;9.85;;;22.40;99.90;;;;;;5072253;28;20040;-46
2022/08/20 06:28:14;;;;;;;20.25;9.45;;;22.40;99.90;;;;;;5029647;28;20049;-51
2022/08/20 06:30:40;;;;;;;22.20;10.25;;;;;;;;;;5020820;28;20041;-57
2022/08/20 06:33:07;;;;;;;17.55;10.55;;;;;;;;;;4995157;28;20042;-48
2022/08/20 06:35:32;;;;;;;18.08;10.27;;;22.40;99.90;;;;;;5030319;28;20552;-47
2022/08/20 06:37:59;;;;;;;24.73;11.52;;;22.60;99.90;;;;;;4998197;28;20068;-45
2022/08/20 06:40:27;;;;;;;19.65;10.25;;;22.50;99.90;;;;;;5006866;28;20622;-48
2022/08/20 06:42:54;;;;;;;20.80;11.30;;;22.60;99.90;;;;;;5036338;28;20116;-47
2022/08/20 06:45:25;;;;;;;15.10;9.60;;;22.60;99.90;;;;;;5032113;28;20044;-43
2022/08/20 06:47:54;;;;;;;17.67;9.82;;;22.90;99.90;;;;;;5029156;28;20025;-47
2022/08/20 06:50:38;;;;;;;20.48;10.55;;;22.60;99.90;;;;;;5035722;28;20038;-45
2022/08/20 06:53:05;;;;;;;22.50;10.45;;;22.70;99.90;;;;;;5034446;28;20107;-44
2022/08/20 06:55:32;;;;;;;24.23;11.00;;;23.10;99.90;;;;;;5029497;28;20029;-45
2022/08/20 06:58:03;;;;;;;21.63;10.00;;;22.80;99.90;;;;;;5034066;28;20072;-47
2022/08/20 07:00:32;;;;;;;25.00;11.20;;;23.00;99.90;;;;;;5033418;28;20434;-46
2022/08/20 07:02:59;;;;;;;22.08;10.05;;;;;;;;;;5029525;28;20044;-46
2022/08/20 07:05:27;;;;;;;19.10;9.98;;;23.10;99.90;;;;;;5045692;28;20053;-48
2022/08/20 07:07:52;;;;;;;19.00;9.82;;;22.70;99.90;;;;;;5058609;28;20040;-46
2022/08/20 07:10:21;;;;;;;21.30;9.82;;;22.80;99.90;;;;;;5026805;28;20036;-46
2022/08/20 07:12:49;;;;;;;19.83;9.43;;;22.80;99.90;;;;;;5068978;28;20487;-46
2022/08/20 07:15:17;;;;;;;18.35;10.52;;;22.80;99.90;;;;;;5072841;28;20033;-44
2022/08/20 07:17:51;;;;;;;19.75;11.73;;;22.80;99.90;;;;;;5069208;28;20131;-47
2022/08/20 07:20:17;;;;;;;18.15;10.02;;;22.80;99.90;;;;;;5071579;28;20037;-46
2022/08/20 07:22:43;;;;;;;20.48;9.63;;;22.80;99.90;;;;;;5023259;28;20058;-46
2022/08/20 07:25:13;;;;;;;16.33;8.75;;;22.70;99.90;;;;;;5026446;28;20093;-48
2022/08/20 07:27:39;;;;;;;18.02;9.43;;;23.00;99.90;;;;;;5019749;28;20044;-45
2022/08/20 07:32:52;;;;;;;19.42;10.90;;;23.00;99.90;;;;;;5026089;28;20524;-48
2022/08/20 07:35:19;;;;;;;19.77;11.00;;;23.10;99.90;;;;;;5022970;28;20049;-46
2022/08/20 07:37:47;;;;;;;19.70;9.73;;;23.20;99.90;;;;;;5017756;28;20143;-46
2022/08/20 07:40:26;;;;;;;24.45;10.82;;;23.30;99.90;;;;;;5018822;28;20076;-45
2022/08/20 07:42:52;;;;;;;16.48;9.85;;;23.30;99.90;;;;;;5024087;28;20053;-46
2022/08/20 07:45:19;;;;;;;22.85;10.60;;;23.30;99.90;;;;;;5019599;28;20033;-45
2022/08/20 07:47:45;;;;;;;17.17;10.25;;;23.10;99.90;;;;;;5022647;28;20046;-48
2022/08/20 07:50:15;;;;;;;22.38;10.68;;;22.90;99.90;;;;;;5041809;28;20036;-46
2022/08/20 07:52:41;;;;;;;18.98;9.68;;;22.70;99.90;;;;;;5046500;28;20132;-47
2022/08/20 07:55:09;;;;;;;16.10;10.23;;;22.80;99.90;;;;;;5075588;28;20029;-50
2022/08/20 07:57:37;;;;;;;24.65;12.50;;;22.80;99.90;;;;;;5013989;28;20048;-45
2022/08/20 08:00:06;;;;;;;20.70;11.60;;;22.90;99.90;;;;;;5069905;28;20205;-46
2022/08/20 08:02:31;;;;;;;21.48;10.45;;;22.90;99.90;;;;;;5060712;28;20115;-48
2022/08/20 08:04:57;;;;;;;16.40;10.25;;;22.90;99.90;;;;;;5063277;28;20119;-43
2022/08/20 08:07:25;;;;;;;22.75;10.80;;;22.80;99.90;;;;;;5055209;28;20471;-46
2022/08/20 08:09:51;;;;;;;16.65;10.10;;;22.90;99.90;;;;;;5070586;28;20033;-48
2022/08/20 08:12:17;;;;;;;20.45;10.35;;;22.90;99.90;;;;;;5045191;28;20033;-48
2022/08/20 08:14:44;;;;;;;20.27;10.52;;;23.00;99.90;;;;;;5052800;28;20039;-45
2022/08/20 08:17:12;;;;;;;23.30;10.43;;;23.10;99.90;;;;;;5043403;28;20111;-49
2022/08/20 08:19:44;;;;;;;18.15;9.73;;;23.20;99.90;;;;;;5077342;28;20037;-48
2022/08/20 08:22:15;;;;;;;16.88;9.80;;;23.20;99.90;;;;;;5078349;28;20021;-46
2022/08/20 08:24:43;;;;;;;20.30;10.77;;;23.30;99.90;;;;;;5078106;28;20064;-49
2022/08/20 08:27:09;;;;;;;18.63;10.90;;;23.30;99.90;;;;;;5076604;28;20113;-46
2022/08/20 08:29:36;;;;;;;17.52;9.80;;;23.40;99.90;;;;;;5073079;28;20115;-47
2022/08/20 08:32:03;;;;;;;23.70;11.15;;;23.50;99.90;;;;;;5073473;28;20044;-46
2022/08/20 08:34:32;;;;;;;15.43;9.23;;;23.70;99.90;;;;;;5058660;28;20044;-49
2022/08/20 08:37:01;;;;;;;15.77;8.15;;;24.10;99.90;;;;;;5078240;28;20044;-46
2022/08/20 08:39:27;;;;;;;17.92;9.07;;;24.00;99.90;;;;;;5071990;28;20518;-43
2022/08/20 08:41:56;;;;;;;20.92;9.43;;;24.30;99.90;;;;;;5077489;28;20494;-45
2022/08/20 08:44:32;;;;;;;16.88;9.25;;;24.30;99.90;;;;;;5071221;28;20048;-47
2022/08/20 08:47:06;;;;;;;18.25;10.10;;;24.40;99.90;;;;;;5074459;28;20472;-48
2022/08/20 08:49:43;;;;;;;16.25;10.05;;;24.60;99.90;;;;;;5074996;28;20036;-51
2022/08/20 08:52:31;;;;;;;23.52;10.98;;;24.70;99.90;;;;;;5071636;28;20031;-45
2022/08/20 08:55:04;;;;;;;18.20;9.55;;;24.90;99.90;;;;;;5073979;28;20038;-47
2022/08/20 08:57:30;;;;;;;14.02;9.85;;;25.10;99.90;;;;;;5073483;28;20042;-47
2022/08/20 09:00:08;;;;;;;18.55;9.50;;;25.30;99.90;;;;;;5072213;28;20541;-46
2022/08/20 09:02:37;;;;;;;17.42;9.23;;;25.70;99.90;;;;;;5056170;28;20037;-49
2022/08/20 09:05:13;;;;;;;16.17;8.77;;;25.60;99.90;;;;;;5073028;28;20405;-50
2022/08/20 09:07:40;;;;;;;18.40;9.98;;;25.80;99.90;;;;;;5073344;28;20082;-49
2022/08/20 09:10:07;;;;;;;18.88;9.07;;;25.70;99.90;;;;;;5074668;28;20098;-45
2022/08/20 09:12:33;;;;;;;15.55;10.00;;;25.80;99.90;;;;;;5047178;28;20036;-45
2022/08/20 09:14:58;;;;;;;18.73;10.00;;;25.80;99.90;;;;;;5055414;28;20040;-48
2022/08/20 09:17:24;;;;;;;17.83;8.85;;;25.90;99.90;;;;;;5077275;28;20085;-48
2022/08/20 09:19:51;;;;;;;19.40;9.82;;;26.10;99.90;;;;;;5071747;28;20029;-47
2022/08/20 09:22:20;;;;;;;17.63;9.52;;;26.20;99.90;;;;;;5073716;28;20052;-45
2022/08/20 09:24:45;;;;;;;18.83;9.07;;;26.50;99.90;;;;;;5071944;28;20372;-48
2022/08/20 09:27:12;;;;;;;19.25;9.45;;;26.50;99.90;;;;;;5045164;28;20050;-48
2022/08/20 09:29:38;;;;;;;15.50;10.27;;;26.40;99.90;;;;;;5073584;28;20021;-47
2022/08/20 09:32:11;;;;;;;18.85;9.27;;;26.40;99.90;;;;;;5079526;28;20032;-45
2022/08/20 09:34:38;;;;;;;17.63;10.00;;;26.30;99.90;;;;;;5057532;28;20499;-48
2022/08/20 09:37:05;;;;;;;18.08;8.98;;;;;;;;;;5077359;28;20024;-46
2022/08/20 09:39:31;;;;;;;21.20;10.77;;;26.50;99.90;;;;;;5074904;28;20080;-48
2022/08/20 09:42:07;;;;;;;17.25;9.27;;;26.50;99.90;;;;;;5051972;28;20052;-46
2022/08/20 09:44:32;;;;;;;25.48;10.40;;;26.60;99.90;;;;;;5077400;28;20052;-46
2022/08/20 09:46:58;;;;;;;18.15;10.57;;;26.70;99.90;;;;;;5076895;28;20360;-45
2022/08/20 09:49:24;;;;;;;15.90;8.10;;;;;;;;;;5067253;28;20491;-46
2022/08/20 09:51:50;;;;;;;18.80;8.98;;;;;;;;;;5078324;28;20029;-45
2022/08/20 09:54:16;;;;;;;15.18;9.23;;;;;;;;;;5071260;28;20041;-44
2022/08/20 09:56:42;;;;;;;17.45;8.75;;;27.10;99.90;;;;;;5075194;28;20051;-46
2022/08/20 09:59:08;;;;;;;35.47;25.67;;;27.50;99.90;;;;;;5090137;28;20479;-46
2022/08/20 10:01:34;;;;;;;16.75;8.80;;;27.10;99.90;;;;;;5045559;28;20039;-45
2022/08/20 10:03:59;;;;;;;13.48;10.20;;;27.20;99.90;;;;;;5070517;28;20044;-46
2022/08/20 10:06:25;;;;;;;19.58;9.23;;;27.10;99.90;;;;;;5075978;28;20028;-45
2022/08/20 10:08:51;;;;;;;18.65;9.65;;;26.60;99.90;;;;;;5069672;28;20062;-46
2022/08/20 10:11:17;;;;;;;20.73;10.48;;;26.40;99.90;;;;;;5073234;28;20024;-49
2022/08/20 10:13:43;;;;;;;15.48;7.00;;;26.70;99.90;;;;;;5040526;28;20048;-47
2022/08/20 10:16:09;;;;;;;15.43;8.98;;;25.90;99.90;;;;;;5071905;28;20035;-45
2022/08/20 10:18:35;;;;;;;17.00;10.95;;;25.50;99.90;;;;;;5040048;28;20032;-45
2022/08/20 10:21:02;;;;;;;17.75;9.70;;;25.60;99.90;;;;;;5059243;28;20064;-45
2022/08/20 10:23:27;;;;;;;18.63;9.15;;;25.50;99.90;;;;;;5072058;28;20089;-46
2022/08/20 10:25:53;;;;;;;15.68;8.60;;;25.40;99.90;;;;;;5071576;28;20028;-45
2022/08/20 10:28:19;;;;;;;20.25;13.32;;;25.40;99.90;;;;;;5085448;28;20039;-45
2022/08/20 10:30:45;;;;;;;14.10;9.18;;;25.60;99.90;;;;;;5059020;28;20107;-46
2022/08/20 10:33:11;;;;;;;17.55;8.77;;;25.90;99.90;;;;;;5071134;28;20048;-46
2022/08/20 10:35:37;;;;;;;17.85;9.10;;;26.10;99.90;;;;;;5072090;28;20025;-47
2022/08/20 10:38:02;;;;;;;14.23;8.30;;;26.30;99.90;;;;;;5072620;28;20040;-45
2022/08/20 10:40:28;;;;;;;18.52;8.00;;;26.40;99.90;;;;;;5071737;28;20120;-46
2022/08/20 10:42:54;;;;;;;13.73;8.05;;;26.50;99.90;;;;;;5054361;28;20048;-45
2022/08/20 10:45:20;;;;;;;15.85;8.07;;;26.50;99.90;;;;;;5012761;28;20040;-45
2022/08/20 10:47:46;;;;;;;13.45;8.82;;;26.50;99.90;;;;;;5072228;28;20074;-46
2022/08/20 10:50:15;;;;;;;17.65;8.93;;;26.50;99.90;;;;;;5073041;28;20066;-45
2022/08/20 10:52:41;;;;;;;13.55;8.60;;;26.60;99.90;;;;;;5070493;28;20044;-46
2022/08/20 10:55:07;;;;;;;16.40;8.25;;;26.70;99.90;;;;;;5052930;28;20051;-45
2022/08/20 10:57:33;;;;;;;14.18;7.45;;;26.80;99.90;;;;;;5071975;28;20032;-45
2022/08/20 11:00:00;;;;;;;13.10;8.60;;;27.00;99.90;;;;;;5070527;28;20020;-45
2022/08/20 11:02:27;;;;;;;17.33;8.00;;;27.10;99.90;;;;;;5071768;28;20039;-45
2022/08/20 11:04:53;;;;;;;14.27;7.97;;;;;;;;;;5070451;28;20506;-46
2022/08/20 11:07:27;;;;;;;14.40;7.30;;;27.10;99.90;;;;;;5076125;28;20036;-45
2022/08/20 11:09:54;;;;;;;21.38;8.80;;;27.30;99.90;;;;;;5075191;28;20027;-48
2022/08/20 11:12:20;;;;;;;12.88;7.72;;;;;;;;;;5073709;28;20028;-45
2022/08/20 11:14:49;;;;;;;11.68;8.15;;;27.60;99.90;;;;;;5070729;28;20029;-45
2022/08/20 11:17:19;;;;;;;13.77;8.60;;;;;;;;;;5071847;28;20059;-46
2022/08/20 11:19:45;;;;;;;16.70;9.63;;;27.80;99.90;;;;;;5052333;28;20028;-46
2022/08/20 11:22:11;;;;;;;15.88;8.77;;;27.20;99.90;;;;;;5072519;28;20108;-45
2022/08/20 11:24:37;;;;;;;16.23;7.55;;;28.00;99.90;;;;;;5069544;28;20451;-46
2022/08/20 11:27:06;;;;;;;21.48;8.52;;;27.90;99.90;;;;;;5064862;28;20067;-46
2022/08/20 11:29:33;;;;;;;13.73;7.13;;;28.20;99.90;;;;;;5066240;28;20361;-47
2022/08/20 11:31:58;;;;;;;27.30;13.82;;;28.30;99.90;;;;;;5070317;28;20036;-46
2022/08/20 11:34:24;;;;;;;13.70;7.80;;;28.50;99.90;;;;;;5071396;28;20434;-46
2022/08/20 11:36:51;;;;;;;13.55;7.22;;;28.30;99.90;;;;;;5074364;28;20040;-47
2022/08/20 11:39:17;;;;;;;13.57;7.63;;;28.10;99.90;;;;;;5070576;28;20032;-48
2022/08/20 11:41:43;;;;;;;15.38;8.75;;;28.50;99.90;;;;;;5075211;28;20032;-45
2022/08/20 11:44:09;;;;;;;18.10;8.07;;;28.50;99.90;;;;;;5071271;28;20048;-46
2022/08/20 11:46:35;;;;;;;14.55;8.63;;;;;;;;;;5074889;28;20041;-46
2022/08/20 11:49:01;;;;;;;16.02;8.65;;;28.50;99.90;;;;;;5019313;28;20043;-46
2022/08/20 11:51:27;;;;;;;15.25;9.27;;;28.90;99.90;;;;;;5089249;28;20041;-45
2022/08/20 11:53:53;;;;;;;19.65;10.25;;;28.40;99.90;;;;;;5072028;28;20059;-49
2022/08/20 11:56:20;;;;;;;20.20;9.23;;;28.40;99.90;;;;;;5093978;28;20480;-44
2022/08/20 11:58:46;;;;;;;14.30;8.60;;;29.00;99.90;;;;;;5077130;28;20032;-48
2022/08/20 12:01:12;;;;;;;15.02;7.70;;;29.70;99.90;;;;;;5073656;28;20020;-47
2022/08/20 12:03:38;;;;;;;18.27;8.07;;;29.60;99.90;;;;;;5074387;28;20024;-48
2022/08/20 12:06:05;;;;;;;20.00;7.88;;;;;;;;;;5054763;28;20123;-48
2022/08/20 12:08:31;;;;;;;13.82;8.13;;;;;;;;;;5074562;28;20062;-46
2022/08/20 12:10:59;;;;;;;12.40;7.93;;;29.90;99.90;;;;;;5060132;28;20077;-47
2022/08/20 12:13:27;;;;;;;12.95;7.68;;;30.40;99.90;;;;;;5073814;28;20427;-47
2022/08/20 12:15:53;;;;;;;21.08;11.65;;;30.50;99.90;;;;;;5073704;28;20494;-46
2022/08/20 12:18:19;;;;;;;15.82;8.18;;;30.20;99.90;;;;;;5053330;28;20094;-47
2022/08/20 12:20:45;;;;;;;15.63;8.25;;;30.30;99.90;;;;;;5072181;28;20033;-47
2022/08/20 12:23:11;;;;;;;12.85;7.68;;;30.20;99.90;;;;;;5072630;28;20029;-46
2022/08/20 12:25:37;;;;;;;12.10;7.38;;;30.30;99.90;;;;;;5074326;28;20033;-45
2022/08/20 12:28:04;;;;;;;20.15;12.32;;;30.10;99.90;;;;;;5071658;28;20045;-46
2022/08/20 12:30:31;;;;;;;22.52;15.50;;;30.00;99.90;;;;;;5073782;28;20039;-45
2022/08/20 12:32:58;;;;;;;13.52;7.45;;;29.10;99.90;;;;;;5075411;28;20040;-47
2022/08/20 12:35:25;;;;;;;12.32;7.68;;;28.60;99.90;;;;;;5074875;28;20028;-49
2022/08/20 12:37:51;;;;;;;15.98;7.63;;;28.30;99.90;;;;;;5076359;28;20047;-52
2022/08/20 12:40:24;;;;;;;16.25;8.70;;;28.00;99.90;;;;;;5074259;28;20046;-54
2022/08/20 12:42:49;;;;;;;30.20;13.43;;;28.00;99.90;;;;;;5072081;28;20563;-47
2022/08/20 12:45:16;;;;;;;48.13;16.92;;;28.20;99.90;;;;;;5072146;28;20041;-49
2022/08/20 12:47:44;;;;;;;19.35;7.90;;;28.40;99.90;;;;;;5076632;28;20050;-50
2022/08/20 12:50:18;;;;;;;12.18;7.60;;;28.40;99.90;;;;;;5077769;28;20021;-50
2022/08/20 12:52:47;;;;;;;17.60;7.93;;;27.80;99.90;;;;;;5068422;28;20045;-48
2022/08/20 12:55:16;;;;;;;14.25;6.93;;;27.70;99.90;;;;;;5072233;28;20051;-51
2022/08/20 12:57:48;;;;;;;11.95;6.22;;;27.60;99.90;;;;;;5073619;28;20033;-50
2022/08/20 13:00:21;;;;;;;18.48;8.45;;;27.60;99.90;;;;;;5073524;28;20078;-50
2022/08/20 13:02:48;;;;;;;16.75;7.97;;;27.70;99.90;;;;;;5073206;28;20538;-51
2022/08/20 13:05:15;;;;;;;16.17;8.02;;;27.90;99.90;;;;;;5074215;28;20464;-48
2022/08/20 13:07:42;;;;;;;14.40;8.50;;;27.50;99.90;;;;;;5077886;28;20040;-50
2022/08/20 13:10:14;;;;;;;16.85;8.68;;;27.50;99.90;;;;;;5070292;28;20385;-50
2022/08/20 13:12:40;;;;;;;18.13;8.80;;;27.30;99.90;;;;;;5073463;28;20068;-50
2022/08/20 13:15:06;;;;;;;16.58;8.40;;;27.20;99.90;;;;;;5074289;28;20542;-49
2022/08/20 13:17:32;;;;;;;15.85;8.70;;;27.30;99.90;;;;;;5031293;28;20099;-49
2022/08/20 13:19:58;;;;;;;16.80;7.97;;;27.10;99.90;;;;;;5053635;28;20488;-50
2022/08/20 13:22:24;;;;;;;14.60;7.53;;;27.30;99.90;;;;;;5072364;28;20567;-51
2022/08/20 13:24:52;;;;;;;17.83;7.80;;;27.50;99.90;;;;;;5020716;28;20044;-50
2022/08/20 13:27:21;;;;;;;14.23;7.43;;;27.40;99.90;;;;;;5053558;28;20065;-49
2022/08/20 13:29:47;;;;;;;17.33;8.13;;;27.50;99.90;;;;;;5071921;28;20043;-51
2022/08/20 13:32:13;;;;;;;20.83;7.53;;;27.30;99.90;;;;;;5071116;28;20028;-51
2022/08/20 13:34:43;;;;;;;13.25;7.97;;;27.00;99.90;;;;;;5074829;28;20097;-49
2022/08/20 13:37:13;;;;;;;15.02;8.20;;;27.50;99.90;;;;;;5037623;28;20120;-51
2022/08/20 13:39:40;;;;;;;16.42;7.80;;;27.40;99.90;;;;;;5050330;28;20094;-51
2022/08/20 13:42:07;;;;;;;13.13;7.40;;;27.30;99.90;;;;;;5074076;28;20041;-51
2022/08/20 13:44:33;;;;;;;12.45;7.85;;;27.20;99.90;;;;;;5076121;28;20048;-49
2022/08/20 13:46:59;;;;;;;15.85;7.70;;;27.00;99.90;;;;;;5055415;28;20036;-49
2022/08/20 13:49:26;;;;;;;14.90;7.13;;;;;;;;;;5074303;28;20029;-48
2022/08/20 13:51:51;;;;;;;20.85;8.23;;;26.70;99.90;;;;;;5077283;28;20086;-49
2022/08/20 13:54:17;;;;;;;15.45;8.30;;;26.60;99.90;;;;;;5080923;28;20067;-50
2022/08/20 13:56:45;;;;;;;18.98;8.55;;;26.50;99.90;;;;;;5073717;28;20125;-48
2022/08/20 13:59:14;;;;;;;13.80;7.72;;;26.50;99.90;;;;;;5039398;28;20047;-51
2022/08/20 14:01:43;;;;;;;17.27;9.93;;;26.40;99.90;;;;;;5033197;28;20032;-49
2022/08/20 14:04:08;;;;;;;14.95;9.07;;;26.30;99.90;;;;;;5069020;28;20037;-50
2022/08/20 14:06:34;;;;;;;14.43;8.75;;;26.30;99.90;;;;;;5072428;28;20422;-50
2022/08/20 14:09:00;;;;;;;17.02;9.13;;;26.40;99.90;;;;;;5059479;28;20037;-49
2022/08/20 14:11:28;;;;;;;12.30;7.75;;;26.80;99.90;;;;;;5072606;28;20055;-50
2022/08/20 14:13:53;;;;;;;16.75;8.25;;;26.90;99.90;;;;;;5056880;28;20055;-50
2022/08/20 14:16:19;;;;;;;14.27;8.50;;;27.10;99.90;;;;;;5074940;28;20036;-49
2022/08/20 14:18:45;;;;;;;11.32;8.07;;;27.20;99.90;;;;;;5074977;28;20483;-50
2022/08/20 14:21:13;;;;;;;14.20;7.22;;;27.30;99.90;;;;;;5039208;28;20071;-51
2022/08/20 14:23:42;;;;;;;14.32;7.65;;;26.20;99.90;;;;;;5068194;28;20044;-49
2022/08/20 14:26:08;;;;;;;14.50;7.35;;;27.70;99.90;;;;;;5054277;28;20093;-51
2022/08/20 14:28:34;;;;;;;15.73;7.53;;;28.10;99.90;;;;;;5076394;28;20032;-49
2022/08/20 14:31:00;;;;;;;15.95;7.35;;;28.50;99.90;;;;;;5059284;28;20033;-50